sensor_id;sensor_type;location;lat;lon;timestamp;P1;durP1;ratioP1;P2;durP2;ratioP2
52057;SDS011;38063;53.210;6.504;2022-11-18T00:00:55;29.25;;;18.50;;
52057;SDS011;38063;53.210;6.504;2022-11-18T00:03:21;31.13;;;19.95;;
52057;SDS011;38063;53.210;6.504;2022-11-18T00:05:53;30.75;;;19.60;;
52057;SDS011;38063;53.210;6.504;2022-11-18T00:08:20;27.05;;;18.67;;
52057;SDS011;38063;53.210;6.504;2022-11-18T00:10:48;31.88;;;19.85;;
52057;SDS011;38063;53.210;6.504;2022-11-18T00:13:13;28.80;;;17.45;;
52057;SDS011;38063;53.210;6.504;2022-11-18T00:15:59;28.10;;;17.25;;
52057;SDS011;38063;53.210;6.504;2022-11-18T00:18:26;27.02;;;18.05;;
52057;SDS011;38063;53.210;6.504;2022-11-18T00:20:51;28.08;;;18.48;;
52057;SDS011;38063;53.210;6.504;2022-11-18T00:23:17;27.23;;;18.45;;
52057;SDS011;38063;53.210;6.504;2022-11-18T00:25:43;27.67;;;18.98;;
52057;SDS011;38063;53.210;6.504;2022-11-18T00:28:08;27.38;;;17.77;;
52057;SDS011;38063;53.210;6.504;2022-11-18T00:30:34;27.38;;;17.67;;
52057;SDS011;38063;53.210;6.504;2022-11-18T00:32:59;26.58;;;18.50;;
52057;SDS011;38063;53.210;6.504;2022-11-18T00:35:25;25.55;;;17.50;;
52057;SDS011;38063;53.210;6.504;2022-11-18T00:37:50;27.33;;;17.58;;
52057;SDS011;38063;53.210;6.504;2022-11-18T00:40:16;29.17;;;18.05;;
52057;SDS011;38063;53.210;6.504;2022-11-18T00:42:42;25.70;;;17.08;;
52057;SDS011;38063;53.210;6.504;2022-11-18T00:45:20;28.80;;;18.65;;
52057;SDS011;38063;53.210;6.504;2022-11-18T00:47:46;27.33;;;17.33;;
52057;SDS011;38063;53.210;6.504;2022-11-18T00:50:11;27.30;;;16.95;;
52057;SDS011;38063;53.210;6.504;2022-11-18T00:52:37;26.23;;;17.25;;
52057;SDS011;38063;53.210;6.504;2022-11-18T00:55:03;28.52;;;17.55;;
52057;SDS011;38063;53.210;6.504;2022-11-18T00:57:29;25.70;;;17.02;;
52057;SDS011;38063;53.210;6.504;2022-11-18T00:59:54;25.30;;;17.25;;
52057;SDS011;38063;53.210;6.504;2022-11-18T01:02:20;28.10;;;17.52;;
52057;SDS011;38063;53.210;6.504;2022-11-18T01:04:46;26.88;;;17.95;;
52057;SDS011;38063;53.210;6.504;2022-11-18T01:07:11;29.98;;;18.10;;
52057;SDS011;38063;53.210;6.504;2022-11-18T01:09:37;30.73;;;18.05;;
52057;SDS011;38063;53.210;6.504;2022-11-18T01:12:03;32.70;;;18.25;;
52057;SDS011;38063;53.210;6.504;2022-11-18T01:14:47;33.25;;;18.15;;
52057;SDS011;38063;53.210;6.504;2022-11-18T01:17:13;27.48;;;17.83;;
52057;SDS011;38063;53.210;6.504;2022-11-18T01:19:38;27.40;;;16.95;;
52057;SDS011;38063;53.210;6.504;2022-11-18T01:22:04;27.83;;;17.08;;
52057;SDS011;38063;53.210;6.504;2022-11-18T01:24:30;29.77;;;17.98;;
52057;SDS011;38063;53.210;6.504;2022-11-18T01:26:57;31.55;;;17.70;;
52057;SDS011;38063;53.210;6.504;2022-11-18T01:29:23;32.95;;;18.67;;
52057;SDS011;38063;53.210;6.504;2022-11-18T01:31:48;29.95;;;17.38;;
52057;SDS011;38063;53.210;6.504;2022-11-18T01:34:14;30.90;;;17.70;;
52057;SDS011;38063;53.210;6.504;2022-11-18T01:36:39;29.35;;;18.23;;
52057;SDS011;38063;53.210;6.504;2022-11-18T01:39:05;30.60;;;18.80;;
52057;SDS011;38063;53.210;6.504;2022-11-18T01:41:31;38.78;;;19.60;;
52057;SDS011;38063;53.210;6.504;2022-11-18T01:43:57;43.03;;;22.48;;
52057;SDS011;38063;53.210;6.504;2022-11-18T01:46:28;55.13;;;26.25;;
52057;SDS011;38063;53.210;6.504;2022-11-18T01:51:32;69.78;;;32.03;;
52057;SDS011;38063;53.210;6.504;2022-11-18T01:54:10;75.00;;;33.05;;
52057;SDS011;38063;53.210;6.504;2022-11-18T01:56:50;68.53;;;31.75;;
52057;SDS011;38063;53.210;6.504;2022-11-18T01:59:19;70.13;;;31.73;;
52057;SDS011;38063;53.210;6.504;2022-11-18T02:01:48;68.70;;;31.55;;
52057;SDS011;38063;53.210;6.504;2022-11-18T02:04:13;71.68;;;31.77;;
52057;SDS011;38063;53.210;6.504;2022-11-18T02:06:40;62.25;;;29.02;;
52057;SDS011;38063;53.210;6.504;2022-11-18T02:09:07;59.47;;;28.77;;
52057;SDS011;38063;53.210;6.504;2022-11-18T02:11:33;59.42;;;29.08;;
52057;SDS011;38063;53.210;6.504;2022-11-18T02:14:18;64.00;;;29.35;;
52057;SDS011;38063;53.210;6.504;2022-11-18T02:17:00;53.97;;;27.00;;
52057;SDS011;38063;53.210;6.504;2022-11-18T02:30:38;54.38;;;25.55;;
52057;SDS011;38063;53.210;6.504;2022-11-18T02:33:16;54.20;;;25.63;;
52057;SDS011;38063;53.210;6.504;2022-11-18T02:35:53;56.15;;;25.65;;
52057;SDS011;38063;53.210;6.504;2022-11-18T02:38:27;55.33;;;24.02;;
52057;SDS011;38063;53.210;6.504;2022-11-18T02:41:06;50.78;;;23.92;;
52057;SDS011;38063;53.210;6.504;2022-11-18T02:43:37;47.33;;;23.65;;
52057;SDS011;38063;53.210;6.504;2022-11-18T02:46:08;46.58;;;22.95;;
52057;SDS011;38063;53.210;6.504;2022-11-18T02:48:39;47.42;;;22.98;;
52057;SDS011;38063;53.210;6.504;2022-11-18T02:51:09;44.33;;;21.52;;
52057;SDS011;38063;53.210;6.504;2022-11-18T02:53:37;42.28;;;22.17;;
52057;SDS011;38063;53.210;6.504;2022-11-18T02:56:06;43.05;;;22.00;;
52057;SDS011;38063;53.210;6.504;2022-11-18T02:58:33;42.58;;;21.65;;
52057;SDS011;38063;53.210;6.504;2022-11-18T03:00:59;47.85;;;22.65;;
52057;SDS011;38063;53.210;6.504;2022-11-18T03:03:32;42.80;;;22.08;;
52057;SDS011;38063;53.210;6.504;2022-11-18T03:08:49;49.00;;;22.33;;
52057;SDS011;38063;53.210;6.504;2022-11-18T03:11:28;46.05;;;23.48;;
52057;SDS011;38063;53.210;6.504;2022-11-18T03:14:06;46.55;;;22.63;;
52057;SDS011;38063;53.210;6.504;2022-11-18T03:16:44;39.83;;;20.48;;
52057;SDS011;38063;53.210;6.504;2022-11-18T03:19:19;38.90;;;19.85;;
52057;SDS011;38063;53.210;6.504;2022-11-18T03:25:17;36.22;;;18.67;;
52057;SDS011;38063;53.210;6.504;2022-11-18T03:27:46;34.28;;;17.15;;
52057;SDS011;38063;53.210;6.504;2022-11-18T03:30:20;39.47;;;17.70;;
52057;SDS011;38063;53.210;6.504;2022-11-18T03:32:51;32.88;;;16.52;;
52057;SDS011;38063;53.210;6.504;2022-11-18T03:35:27;31.50;;;16.05;;
52057;SDS011;38063;53.210;6.504;2022-11-18T03:37:58;30.20;;;15.23;;
52057;SDS011;38063;53.210;6.504;2022-11-18T03:40:37;27.10;;;14.80;;
52057;SDS011;38063;53.210;6.504;2022-11-18T03:43:08;26.25;;;15.27;;
52057;SDS011;38063;53.210;6.504;2022-11-18T03:48:15;26.40;;;14.98;;
52057;SDS011;38063;53.210;6.504;2022-11-18T03:51:02;27.15;;;15.48;;
52057;SDS011;38063;53.210;6.504;2022-11-18T03:53:33;24.92;;;14.07;;
52057;SDS011;38063;53.210;6.504;2022-11-18T03:56:12;23.50;;;14.10;;
52057;SDS011;38063;53.210;6.504;2022-11-18T03:58:45;25.85;;;13.98;;
52057;SDS011;38063;53.210;6.504;2022-11-18T04:01:26;27.85;;;14.93;;
52057;SDS011;38063;53.210;6.504;2022-11-18T04:04:01;28.52;;;14.50;;
52057;SDS011;38063;53.210;6.504;2022-11-18T04:09:02;26.50;;;13.68;;
52057;SDS011;38063;53.210;6.504;2022-11-18T04:11:35;27.08;;;14.35;;
52057;SDS011;38063;53.210;6.504;2022-11-18T04:14:26;24.60;;;13.75;;
52057;SDS011;38063;53.210;6.504;2022-11-18T04:16:52;27.95;;;14.70;;
52057;SDS011;38063;53.210;6.504;2022-11-18T04:19:18;24.90;;;13.13;;
52057;SDS011;38063;53.210;6.504;2022-11-18T04:21:44;25.63;;;14.18;;
52057;SDS011;38063;53.210;6.504;2022-11-18T04:24:11;28.10;;;14.18;;
52057;SDS011;38063;53.210;6.504;2022-11-18T04:26:37;22.25;;;13.63;;
52057;SDS011;38063;53.210;6.504;2022-11-18T04:29:02;24.60;;;13.35;;
52057;SDS011;38063;53.210;6.504;2022-11-18T04:31:28;25.30;;;12.75;;
52057;SDS011;38063;53.210;6.504;2022-11-18T04:33:54;28.05;;;14.27;;
52057;SDS011;38063;53.210;6.504;2022-11-18T04:36:19;26.38;;;13.60;;
52057;SDS011;38063;53.210;6.504;2022-11-18T04:38:45;23.08;;;13.05;;
52057;SDS011;38063;53.210;6.504;2022-11-18T04:41:11;25.63;;;13.27;;
52057;SDS011;38063;53.210;6.504;2022-11-18T04:43:37;28.83;;;13.82;;
52057;SDS011;38063;53.210;6.504;2022-11-18T04:46:02;24.48;;;13.77;;
52057;SDS011;38063;53.210;6.504;2022-11-18T04:48:28;26.15;;;13.38;;
52057;SDS011;38063;53.210;6.504;2022-11-18T04:50:57;25.20;;;13.20;;
52057;SDS011;38063;53.210;6.504;2022-11-18T04:53:22;23.00;;;13.70;;
52057;SDS011;38063;53.210;6.504;2022-11-18T04:55:48;25.08;;;12.73;;
52057;SDS011;38063;53.210;6.504;2022-11-18T04:58:13;25.45;;;14.38;;
52057;SDS011;38063;53.210;6.504;2022-11-18T05:00:39;23.33;;;14.45;;
52057;SDS011;38063;53.210;6.504;2022-11-18T05:03:05;26.30;;;13.63;;
52057;SDS011;38063;53.210;6.504;2022-11-18T05:05:31;26.95;;;13.48;;
52057;SDS011;38063;53.210;6.504;2022-11-18T05:07:58;27.27;;;13.60;;
52057;SDS011;38063;53.210;6.504;2022-11-18T05:10:24;23.83;;;13.50;;
52057;SDS011;38063;53.210;6.504;2022-11-18T05:12:49;25.23;;;13.70;;
52057;SDS011;38063;53.210;6.504;2022-11-18T05:15:16;20.52;;;13.05;;
52057;SDS011;38063;53.210;6.504;2022-11-18T05:17:44;23.23;;;13.65;;
52057;SDS011;38063;53.210;6.504;2022-11-18T05:20:10;28.75;;;13.45;;
52057;SDS011;38063;53.210;6.504;2022-11-18T05:22:37;21.60;;;13.52;;
52057;SDS011;38063;53.210;6.504;2022-11-18T05:25:03;25.83;;;13.93;;
52057;SDS011;38063;53.210;6.504;2022-11-18T05:27:29;28.08;;;14.45;;
52057;SDS011;38063;53.210;6.504;2022-11-18T05:29:54;23.63;;;13.43;;
52057;SDS011;38063;53.210;6.504;2022-11-18T05:32:20;25.27;;;13.55;;
52057;SDS011;38063;53.210;6.504;2022-11-18T05:34:46;24.13;;;14.07;;
52057;SDS011;38063;53.210;6.504;2022-11-18T05:37:11;29.52;;;13.55;;
52057;SDS011;38063;53.210;6.504;2022-11-18T05:39:37;29.40;;;14.65;;
52057;SDS011;38063;53.210;6.504;2022-11-18T05:42:03;28.38;;;14.77;;
52057;SDS011;38063;53.210;6.504;2022-11-18T05:44:47;27.70;;;14.30;;
52057;SDS011;38063;53.210;6.504;2022-11-18T05:47:14;32.53;;;15.32;;
52057;SDS011;38063;53.210;6.504;2022-11-18T05:49:39;28.88;;;14.10;;
52057;SDS011;38063;53.210;6.504;2022-11-18T05:52:05;29.35;;;14.07;;
52057;SDS011;38063;53.210;6.504;2022-11-18T05:54:30;27.77;;;13.80;;
52057;SDS011;38063;53.210;6.504;2022-11-18T05:56:56;26.50;;;13.95;;
52057;SDS011;38063;53.210;6.504;2022-11-18T05:59:22;27.23;;;13.50;;
52057;SDS011;38063;53.210;6.504;2022-11-18T06:01:52;30.55;;;14.23;;
52057;SDS011;38063;53.210;6.504;2022-11-18T06:04:29;28.05;;;14.30;;
52057;SDS011;38063;53.210;6.504;2022-11-18T06:07:06;30.58;;;14.68;;
52057;SDS011;38063;53.210;6.504;2022-11-18T06:09:46;28.45;;;14.00;;
52057;SDS011;38063;53.210;6.504;2022-11-18T06:12:15;27.02;;;14.32;;
52057;SDS011;38063;53.210;6.504;2022-11-18T06:14:47;29.83;;;14.20;;
52057;SDS011;38063;53.210;6.504;2022-11-18T06:17:18;28.95;;;14.60;;
52057;SDS011;38063;53.210;6.504;2022-11-18T06:19:47;27.38;;;14.60;;
52057;SDS011;38063;53.210;6.504;2022-11-18T06:22:13;28.95;;;14.18;;
52057;SDS011;38063;53.210;6.504;2022-11-18T06:24:39;29.17;;;14.00;;
52057;SDS011;38063;53.210;6.504;2022-11-18T06:27:05;33.67;;;15.30;;
52057;SDS011;38063;53.210;6.504;2022-11-18T06:29:31;31.50;;;14.13;;
52057;SDS011;38063;53.210;6.504;2022-11-18T06:31:57;25.70;;;14.55;;
52057;SDS011;38063;53.210;6.504;2022-11-18T06:34:22;33.05;;;15.45;;
52057;SDS011;38063;53.210;6.504;2022-11-18T06:36:48;30.83;;;14.48;;
52057;SDS011;38063;53.210;6.504;2022-11-18T06:39:14;29.60;;;14.85;;
52057;SDS011;38063;53.210;6.504;2022-11-18T06:41:39;31.02;;;15.40;;
52057;SDS011;38063;53.210;6.504;2022-11-18T06:44:05;31.85;;;14.40;;
52057;SDS011;38063;53.210;6.504;2022-11-18T06:46:31;38.17;;;15.02;;
52057;SDS011;38063;53.210;6.504;2022-11-18T06:49:16;34.30;;;16.02;;
52057;SDS011;38063;53.210;6.504;2022-11-18T06:51:41;33.80;;;15.57;;
52057;SDS011;38063;53.210;6.504;2022-11-18T06:54:07;32.25;;;14.63;;
52057;SDS011;38063;53.210;6.504;2022-11-18T06:56:33;35.00;;;15.50;;
52057;SDS011;38063;53.210;6.504;2022-11-18T06:58:59;36.75;;;16.45;;
52057;SDS011;38063;53.210;6.504;2022-11-18T07:01:26;31.77;;;15.68;;
52057;SDS011;38063;53.210;6.504;2022-11-18T07:03:53;32.67;;;16.40;;
52057;SDS011;38063;53.210;6.504;2022-11-18T07:06:23;30.98;;;15.50;;
52057;SDS011;38063;53.210;6.504;2022-11-18T07:08:50;38.38;;;15.85;;
52057;SDS011;38063;53.210;6.504;2022-11-18T07:11:17;31.63;;;15.02;;
52057;SDS011;38063;53.210;6.504;2022-11-18T07:13:45;37.55;;;16.58;;
52057;SDS011;38063;53.210;6.504;2022-11-18T07:16:12;33.60;;;14.55;;
52057;SDS011;38063;53.210;6.504;2022-11-18T07:18:42;29.67;;;14.43;;
52057;SDS011;38063;53.210;6.504;2022-11-18T07:21:10;41.15;;;16.60;;
52057;SDS011;38063;53.210;6.504;2022-11-18T07:23:38;33.65;;;15.88;;
52057;SDS011;38063;53.210;6.504;2022-11-18T07:26:04;37.05;;;14.73;;
52057;SDS011;38063;53.210;6.504;2022-11-18T07:28:30;35.03;;;15.20;;
52057;SDS011;38063;53.210;6.504;2022-11-18T07:31:03;35.42;;;15.23;;
52057;SDS011;38063;53.210;6.504;2022-11-18T07:33:37;27.83;;;13.68;;
52057;SDS011;38063;53.210;6.504;2022-11-18T07:36:04;31.20;;;14.52;;
52057;SDS011;38063;53.210;6.504;2022-11-18T07:38:32;34.40;;;15.38;;
52057;SDS011;38063;53.210;6.504;2022-11-18T07:41:04;31.83;;;15.43;;
52057;SDS011;38063;53.210;6.504;2022-11-18T07:43:35;33.22;;;15.95;;
52057;SDS011;38063;53.210;6.504;2022-11-18T07:48:37;31.00;;;15.60;;
52057;SDS011;38063;53.210;6.504;2022-11-18T07:51:03;28.00;;;14.10;;
52057;SDS011;38063;53.210;6.504;2022-11-18T07:53:29;36.42;;;17.38;;
52057;SDS011;38063;53.210;6.504;2022-11-18T07:55:55;37.80;;;16.90;;
52057;SDS011;38063;53.210;6.504;2022-11-18T07:58:21;40.10;;;17.15;;
52057;SDS011;38063;53.210;6.504;2022-11-18T08:00:46;31.35;;;15.77;;
52057;SDS011;38063;53.210;6.504;2022-11-18T08:03:12;36.00;;;16.05;;
52057;SDS011;38063;53.210;6.504;2022-11-18T08:05:38;33.72;;;16.15;;
52057;SDS011;38063;53.210;6.504;2022-11-18T08:08:03;35.00;;;16.45;;
52057;SDS011;38063;53.210;6.504;2022-11-18T08:10:29;37.10;;;16.48;;
52057;SDS011;38063;53.210;6.504;2022-11-18T08:12:55;33.55;;;17.00;;
52057;SDS011;38063;53.210;6.504;2022-11-18T08:15:21;34.95;;;15.88;;
52057;SDS011;38063;53.210;6.504;2022-11-18T08:17:47;34.50;;;16.35;;
52057;SDS011;38063;53.210;6.504;2022-11-18T08:20:13;29.92;;;15.18;;
52057;SDS011;38063;53.210;6.504;2022-11-18T08:22:39;27.38;;;14.77;;
52057;SDS011;38063;53.210;6.504;2022-11-18T08:25:05;26.23;;;13.80;;
52057;SDS011;38063;53.210;6.504;2022-11-18T08:27:31;28.40;;;15.00;;
52057;SDS011;38063;53.210;6.504;2022-11-18T08:29:57;26.27;;;13.93;;
52057;SDS011;38063;53.210;6.504;2022-11-18T08:32:22;26.40;;;13.65;;
52057;SDS011;38063;53.210;6.504;2022-11-18T08:34:48;24.33;;;12.90;;
52057;SDS011;38063;53.210;6.504;2022-11-18T08:37:14;24.15;;;13.30;;
52057;SDS011;38063;53.210;6.504;2022-11-18T08:39:41;24.88;;;12.55;;
52057;SDS011;38063;53.210;6.504;2022-11-18T08:42:07;26.63;;;14.45;;
52057;SDS011;38063;53.210;6.504;2022-11-18T08:44:34;29.75;;;14.75;;
52057;SDS011;38063;53.210;6.504;2022-11-18T08:46:59;30.38;;;15.20;;
52057;SDS011;38063;53.210;6.504;2022-11-18T08:49:25;29.95;;;15.55;;
52057;SDS011;38063;53.210;6.504;2022-11-18T08:51:51;30.40;;;14.82;;
52057;SDS011;38063;53.210;6.504;2022-11-18T08:54:16;31.30;;;16.08;;
52057;SDS011;38063;53.210;6.504;2022-11-18T08:56:42;33.72;;;16.58;;
52057;SDS011;38063;53.210;6.504;2022-11-18T08:59:08;34.67;;;17.35;;
52057;SDS011;38063;53.210;6.504;2022-11-18T09:01:34;33.10;;;16.85;;
52057;SDS011;38063;53.210;6.504;2022-11-18T09:04:01;31.63;;;15.43;;
52057;SDS011;38063;53.210;6.504;2022-11-18T09:06:27;31.48;;;15.45;;
52057;SDS011;38063;53.210;6.504;2022-11-18T09:08:53;24.75;;;13.55;;
52057;SDS011;38063;53.210;6.504;2022-11-18T09:11:20;26.95;;;14.20;;
52057;SDS011;38063;53.210;6.504;2022-11-18T09:13:47;29.05;;;14.50;;
52057;SDS011;38063;53.210;6.504;2022-11-18T09:16:16;29.27;;;14.38;;
52057;SDS011;38063;53.210;6.504;2022-11-18T09:18:42;25.90;;;14.23;;
52057;SDS011;38063;53.210;6.504;2022-11-18T09:21:08;23.65;;;13.50;;
52057;SDS011;38063;53.210;6.504;2022-11-18T09:23:34;24.65;;;14.80;;
52057;SDS011;38063;53.210;6.504;2022-11-18T09:26:09;28.83;;;13.93;;
52057;SDS011;38063;53.210;6.504;2022-11-18T09:28:36;28.23;;;13.88;;
52057;SDS011;38063;53.210;6.504;2022-11-18T09:31:12;27.38;;;14.50;;
52057;SDS011;38063;53.210;6.504;2022-11-18T09:33:40;27.40;;;13.93;;
52057;SDS011;38063;53.210;6.504;2022-11-18T09:36:13;27.02;;;13.55;;
52057;SDS011;38063;53.210;6.504;2022-11-18T09:38:43;25.10;;;13.35;;
52057;SDS011;38063;53.210;6.504;2022-11-18T09:44:01;28.38;;;12.95;;
52057;SDS011;38063;53.210;6.504;2022-11-18T09:49:36;22.92;;;12.07;;
52057;SDS011;38063;53.210;6.504;2022-11-18T09:52:06;19.75;;;12.85;;
52057;SDS011;38063;53.210;6.504;2022-11-18T09:54:46;23.63;;;12.52;;
52057;SDS011;38063;53.210;6.504;2022-11-18T09:57:16;22.55;;;12.20;;
52057;SDS011;38063;53.210;6.504;2022-11-18T09:59:44;20.85;;;11.23;;
52057;SDS011;38063;53.210;6.504;2022-11-18T10:02:22;24.95;;;12.23;;
52057;SDS011;38063;53.210;6.504;2022-11-18T10:05:11;21.95;;;12.68;;
52057;SDS011;38063;53.210;6.504;2022-11-18T10:11:00;24.38;;;13.00;;
52057;SDS011;38063;53.210;6.504;2022-11-18T10:24:21;25.08;;;13.45;;
52057;SDS011;38063;53.210;6.504;2022-11-18T10:26:55;23.80;;;13.40;;
52057;SDS011;38063;53.210;6.504;2022-11-18T10:29:22;24.48;;;13.20;;
52057;SDS011;38063;53.210;6.504;2022-11-18T10:32:30;26.13;;;14.15;;
52057;SDS011;38063;53.210;6.504;2022-11-18T10:34:53;26.52;;;13.88;;
52057;SDS011;38063;53.210;6.504;2022-11-18T10:37:32;27.45;;;13.32;;
52057;SDS011;38063;53.210;6.504;2022-11-18T10:40:01;25.17;;;12.93;;
52057;SDS011;38063;53.210;6.504;2022-11-18T10:42:31;24.73;;;12.50;;
52057;SDS011;38063;53.210;6.504;2022-11-18T10:50:44;25.90;;;13.38;;
52057;SDS011;38063;53.210;6.504;2022-11-18T10:53:36;24.63;;;13.30;;
52057;SDS011;38063;53.210;6.504;2022-11-18T10:56:10;25.77;;;12.95;;
52057;SDS011;38063;53.210;6.504;2022-11-18T10:58:40;27.83;;;14.32;;
52057;SDS011;38063;53.210;6.504;2022-11-18T11:03:58;25.65;;;13.73;;
52057;SDS011;38063;53.210;6.504;2022-11-18T11:08:59;25.17;;;13.88;;
52057;SDS011;38063;53.210;6.504;2022-11-18T11:11:31;23.30;;;12.90;;
52057;SDS011;38063;53.210;6.504;2022-11-18T11:17:12;26.83;;;14.45;;
52057;SDS011;38063;53.210;6.504;2022-11-18T11:22:19;28.33;;;15.18;;
52057;SDS011;38063;53.210;6.504;2022-11-18T11:24:45;32.92;;;15.00;;
52057;SDS011;38063;53.210;6.504;2022-11-18T11:27:30;35.15;;;15.48;;
52057;SDS011;38063;53.210;6.504;2022-11-18T11:30:20;31.52;;;16.40;;
52057;SDS011;38063;53.210;6.504;2022-11-18T11:35:49;30.92;;;16.63;;
52057;SDS011;38063;53.210;6.504;2022-11-18T11:38:34;33.67;;;17.08;;
52057;SDS011;38063;53.210;6.504;2022-11-18T11:44:05;37.45;;;16.27;;
52057;SDS011;38063;53.210;6.504;2022-11-18T11:49:51;34.85;;;17.25;;
52057;SDS011;38063;53.210;6.504;2022-11-18T11:58:32;33.42;;;16.17;;
52057;SDS011;38063;53.210;6.504;2022-11-18T12:06:45;35.50;;;16.70;;
52057;SDS011;38063;53.210;6.504;2022-11-18T12:09:38;35.78;;;16.67;;
52057;SDS011;38063;53.210;6.504;2022-11-18T12:17:43;34.03;;;15.15;;
52057;SDS011;38063;53.210;6.504;2022-11-18T12:20:38;31.88;;;15.50;;
52057;SDS011;38063;53.210;6.504;2022-11-18T12:23:20;33.97;;;16.30;;
52057;SDS011;38063;53.210;6.504;2022-11-18T12:28:22;29.02;;;14.40;;
52057;SDS011;38063;53.210;6.504;2022-11-18T12:34:02;27.60;;;14.88;;
52057;SDS011;38063;53.210;6.504;2022-11-18T12:36:31;28.45;;;13.80;;
52057;SDS011;38063;53.210;6.504;2022-11-18T12:41:59;24.98;;;13.20;;
52057;SDS011;38063;53.210;6.504;2022-11-18T12:44:46;26.95;;;13.32;;
52057;SDS011;38063;53.210;6.504;2022-11-18T12:47:13;26.58;;;12.93;;
52057;SDS011;38063;53.210;6.504;2022-11-18T12:54:53;23.33;;;12.73;;
52057;SDS011;38063;53.210;6.504;2022-11-18T12:57:25;26.83;;;12.93;;
52057;SDS011;38063;53.210;6.504;2022-11-18T12:59:53;25.75;;;13.10;;
52057;SDS011;38063;53.210;6.504;2022-11-18T13:02:23;25.70;;;13.38;;
52057;SDS011;38063;53.210;6.504;2022-11-18T13:05:06;24.95;;;13.73;;
52057;SDS011;38063;53.210;6.504;2022-11-18T13:07:44;26.80;;;13.70;;
52057;SDS011;38063;53.210;6.504;2022-11-18T13:10:32;26.75;;;14.07;;
52057;SDS011;38063;53.210;6.504;2022-11-18T13:13:02;25.13;;;13.65;;
52057;SDS011;38063;53.210;6.504;2022-11-18T13:15:27;25.73;;;14.77;;
52057;SDS011;38063;53.210;6.504;2022-11-18T13:20:43;26.75;;;14.38;;
52057;SDS011;38063;53.210;6.504;2022-11-18T13:23:25;29.77;;;15.35;;
52057;SDS011;38063;53.210;6.504;2022-11-18T13:26:18;29.55;;;14.35;;
52057;SDS011;38063;53.210;6.504;2022-11-18T13:34:27;28.10;;;14.52;;
52057;SDS011;38063;53.210;6.504;2022-11-18T13:36:55;28.98;;;14.50;;
52057;SDS011;38063;53.210;6.504;2022-11-18T13:39:27;29.20;;;15.30;;
52057;SDS011;38063;53.210;6.504;2022-11-18T13:42:12;34.67;;;16.00;;
52057;SDS011;38063;53.210;6.504;2022-11-18T13:44:44;27.40;;;14.85;;
52057;SDS011;38063;53.210;6.504;2022-11-18T13:55:24;29.50;;;14.60;;
52057;SDS011;38063;53.210;6.504;2022-11-18T13:58:02;31.38;;;14.77;;
52057;SDS011;38063;53.210;6.504;2022-11-18T14:00:53;24.15;;;13.60;;
52057;SDS011;38063;53.210;6.504;2022-11-18T14:06:00;27.92;;;13.10;;
52057;SDS011;38063;53.210;6.504;2022-11-18T14:08:28;24.88;;;13.98;;
52057;SDS011;38063;53.210;6.504;2022-11-18T14:10:55;26.58;;;13.27;;
52057;SDS011;38063;53.210;6.504;2022-11-18T14:13:27;26.05;;;12.43;;
52057;SDS011;38063;53.210;6.504;2022-11-18T14:15:55;27.35;;;12.13;;
52057;SDS011;38063;53.210;6.504;2022-11-18T14:18:32;26.13;;;13.52;;
52057;SDS011;38063;53.210;6.504;2022-11-18T14:21:00;24.13;;;12.50;;
52057;SDS011;38063;53.210;6.504;2022-11-18T14:25:57;25.38;;;13.48;;
52057;SDS011;38063;53.210;6.504;2022-11-18T14:28:26;24.38;;;11.93;;
52057;SDS011;38063;53.210;6.504;2022-11-18T14:33:20;25.33;;;13.05;;
52057;SDS011;38063;53.210;6.504;2022-11-18T14:35:55;26.65;;;12.40;;
52057;SDS011;38063;53.210;6.504;2022-11-18T14:40:58;27.67;;;13.65;;
52057;SDS011;38063;53.210;6.504;2022-11-18T14:43:26;26.48;;;12.82;;
52057;SDS011;38063;53.210;6.504;2022-11-18T14:45:53;27.42;;;13.00;;
52057;SDS011;38063;53.210;6.504;2022-11-18T14:48:22;26.67;;;13.55;;
52057;SDS011;38063;53.210;6.504;2022-11-18T14:50:49;28.13;;;14.65;;
52057;SDS011;38063;53.210;6.504;2022-11-18T14:53:16;25.42;;;12.73;;
52057;SDS011;38063;53.210;6.504;2022-11-18T14:55:43;26.05;;;12.63;;
52057;SDS011;38063;53.210;6.504;2022-11-18T14:58:11;26.92;;;12.45;;
52057;SDS011;38063;53.210;6.504;2022-11-18T15:00:38;23.05;;;11.70;;
52057;SDS011;38063;53.210;6.504;2022-11-18T15:03:08;23.73;;;12.88;;
52057;SDS011;38063;53.210;6.504;2022-11-18T15:05:33;29.08;;;14.30;;
52057;SDS011;38063;53.210;6.504;2022-11-18T15:07:59;28.88;;;14.38;;
52057;SDS011;38063;53.210;6.504;2022-11-18T15:10:25;32.00;;;13.95;;
52057;SDS011;38063;53.210;6.504;2022-11-18T15:12:51;29.67;;;14.50;;
52057;SDS011;38063;53.210;6.504;2022-11-18T15:15:16;31.00;;;14.30;;
52057;SDS011;38063;53.210;6.504;2022-11-18T15:17:42;29.65;;;15.35;;
52057;SDS011;38063;53.210;6.504;2022-11-18T15:20:11;31.13;;;15.73;;
52057;SDS011;38063;53.210;6.504;2022-11-18T15:22:38;31.77;;;15.45;;
52057;SDS011;38063;53.210;6.504;2022-11-18T15:25:04;30.27;;;15.45;;
52057;SDS011;38063;53.210;6.504;2022-11-18T15:27:30;24.95;;;13.80;;
52057;SDS011;38063;53.210;6.504;2022-11-18T15:29:56;32.55;;;15.25;;
52057;SDS011;38063;53.210;6.504;2022-11-18T15:32:22;27.90;;;15.20;;
52057;SDS011;38063;53.210;6.504;2022-11-18T15:34:47;27.48;;;13.98;;
52057;SDS011;38063;53.210;6.504;2022-11-18T15:37:13;26.75;;;13.68;;
52057;SDS011;38063;53.210;6.504;2022-11-18T15:39:38;30.10;;;15.18;;
52057;SDS011;38063;53.210;6.504;2022-11-18T15:42:04;29.80;;;15.10;;
52057;SDS011;38063;53.210;6.504;2022-11-18T15:44:30;25.85;;;14.85;;
52057;SDS011;38063;53.210;6.504;2022-11-18T15:46:55;29.23;;;14.48;;
52057;SDS011;38063;53.210;6.504;2022-11-18T15:49:22;29.45;;;15.70;;
52057;SDS011;38063;53.210;6.504;2022-11-18T15:51:47;28.80;;;14.32;;
52057;SDS011;38063;53.210;6.504;2022-11-18T15:54:13;29.60;;;15.35;;
52057;SDS011;38063;53.210;6.504;2022-11-18T15:56:39;31.38;;;16.13;;
52057;SDS011;38063;53.210;6.504;2022-11-18T15:59:07;26.25;;;14.95;;
52057;SDS011;38063;53.210;6.504;2022-11-18T16:01:35;29.52;;;15.43;;
52057;SDS011;38063;53.210;6.504;2022-11-18T16:04:03;29.02;;;16.20;;
52057;SDS011;38063;53.210;6.504;2022-11-18T16:06:30;28.98;;;14.77;;
52057;SDS011;38063;53.210;6.504;2022-11-18T16:08:56;33.65;;;16.05;;
52057;SDS011;38063;53.210;6.504;2022-11-18T16:11:22;29.98;;;15.40;;
52057;SDS011;38063;53.210;6.504;2022-11-18T16:14:07;29.45;;;15.48;;
52057;SDS011;38063;53.210;6.504;2022-11-18T16:16:35;29.90;;;14.38;;
52057;SDS011;38063;53.210;6.504;2022-11-18T16:19:02;30.30;;;15.00;;
52057;SDS011;38063;53.210;6.504;2022-11-18T16:21:33;25.65;;;14.60;;
52057;SDS011;38063;53.210;6.504;2022-11-18T16:24:01;26.38;;;13.80;;
52057;SDS011;38063;53.210;6.504;2022-11-18T16:26:28;26.15;;;13.98;;
52057;SDS011;38063;53.210;6.504;2022-11-18T16:28:55;27.40;;;15.13;;
52057;SDS011;38063;53.210;6.504;2022-11-18T16:31:21;26.23;;;14.95;;
52057;SDS011;38063;53.210;6.504;2022-11-18T16:34:12;28.70;;;14.70;;
52057;SDS011;38063;53.210;6.504;2022-11-18T16:36:40;24.80;;;14.10;;
52057;SDS011;38063;53.210;6.504;2022-11-18T16:39:08;30.65;;;15.90;;
52057;SDS011;38063;53.210;6.504;2022-11-18T16:41:38;28.23;;;15.60;;
52057;SDS011;38063;53.210;6.504;2022-11-18T16:44:05;26.50;;;15.45;;
52057;SDS011;38063;53.210;6.504;2022-11-18T16:46:33;26.90;;;15.48;;